Time;durP1;ratioP1;P1;durP2;ratioP2;P2;SDS_P1;SDS_P2;PMS_P1;PMS_P2;Temp;Humidity;BMP_temperature;BMP_pressure;BME280_temperature;BME280_humidity;BME280_pressure;Samples;Min_cycle;Max_cycle;Signal;HPM_P1;HPM_P2
2023/05/17 00:00:15;;;;;;;16.35;14.55;;;;;;;14.03;83.59;100128.53;1718753;83;27353;-57
2023/05/17 00:02:43;;;;;;;22.60;16.25;;;;;;;14.02;83.47;100131.83;1718658;83;25760;-57
2023/05/17 00:05:10;;;;;;;20.30;16.00;;;;;;;14.00;83.53;100125.36;1718792;83;25624;-59
2023/05/17 00:07:37;;;;;;;23.65;16.35;;;;;;;14.01;83.68;100126.14;1718707;83;25551;-55
2023/05/17 00:10:04;;;;;;;19.50;15.45;;;;;;;13.99;83.72;100121.04;1718752;83;25456;-54
2023/05/17 00:12:30;;;;;;;18.35;16.30;;;;;;;13.98;83.69;100124.13;1718738;83;27412;-56
2023/05/17 00:14:56;;;;;;;20.52;16.52;;;;;;;13.98;84.05;100121.41;1718664;83;25480;-57
2023/05/17 00:17:23;;;;;;;22.37;17.62;;;;;;;13.98;84.36;100117.33;1718731;83;25579;-57
2023/05/17 00:19:49;;;;;;;20.77;17.65;;;;;;;13.99;84.63;100113.45;1718702;83;25457;-57
2023/05/17 00:22:15;;;;;;;23.75;19.07;;;;;;;13.98;84.72;100118.11;1718755;83;25569;-57
2023/05/17 00:24:41;;;;;;;23.10;19.17;;;;;;;13.98;84.78;100113.25;1718754;83;28087;-56
2023/05/17 00:27:07;;;;;;;24.67;22.05;;;;;;;13.99;84.81;100117.53;1718651;83;25670;-54
2023/05/17 00:29:33;;;;;;;25.48;20.02;;;;;;;13.96;84.94;100112.22;1718776;83;25575;-57
2023/05/17 00:31:59;;;;;;;25.10;20.40;;;;;;;13.93;84.90;100103.94;1718684;83;25443;-58
2023/05/17 00:34:26;;;;;;;25.23;20.77;;;;;;;13.89;84.98;100105.16;1718709;83;25587;-58
2023/05/17 00:36:51;;;;;;;25.57;20.37;;;;;;;13.88;85.03;100106.30;1718755;83;28129;-58
2023/05/17 00:39:17;;;;;;;27.25;18.62;;;;;;;13.89;85.34;100108.45;1718667;83;33057;-58
2023/05/17 00:41:44;;;;;;;22.17;19.32;;;;;;;13.90;85.52;100112.77;1718706;83;25573;-57
2023/05/17 00:44:10;;;;;;;23.62;19.23;;;;;;;13.90;85.63;100114.91;1718759;83;25657;-59
2023/05/17 00:46:36;;;;;;;21.80;19.57;;;;;;;13.89;85.56;100112.52;1718810;83;25593;-58
2023/05/17 00:49:02;;;;;;;21.42;19.23;;;;;;;13.87;85.58;100110.14;1718771;83;27400;-58
2023/05/17 00:51:30;;;;;;;22.10;18.12;;;;;;;13.85;85.39;100109.69;1709784;83;25459;-58
2023/05/17 00:53:57;;;;;;;25.48;20.32;;;;;;;13.85;85.83;100110.26;1709753;83;25548;-56
2023/05/17 00:56:24;;;;;;;24.18;19.25;;;;;;;13.83;86.06;100107.88;1709746;83;25867;-57
2023/05/17 00:58:50;;;;;;;21.93;18.98;;;;;;;13.82;86.05;100106.27;1709797;83;25587;-56
2023/05/17 01:01:16;;;;;;;21.30;18.32;;;;;;;13.79;86.04;100103.67;1709790;83;27403;-58
2023/05/17 01:03:43;;;;;;;23.95;19.02;;;;;;;13.80;86.21;100108.53;1709673;83;25689;-58
2023/05/17 01:06:09;;;;;;;22.70;18.92;;;;;;;13.80;86.17;100110.68;1689884;84;25570;-55
2023/05/17 01:08:36;;;;;;;20.80;18.10;;;;;;;13.79;86.40;100105.58;1719664;83;25455;-56
2023/05/17 01:11:30;;;;;;;22.93;18.55;;;;;;;13.74;86.28;100107.96;1719783;83;25478;-55
2023/05/17 01:14:14;;;;;;;23.02;16.67;;;;;;;13.73;86.46;100103.64;1719842;82;27587;-58
2023/05/17 01:17:03;;;;;;;20.68;18.48;;;;;;;13.72;86.50;100099.32;1718969;83;25491;-56
2023/05/17 01:19:50;;;;;;;20.95;17.00;;;;;;;13.69;86.52;100098.66;1719823;83;25663;-58
2023/05/17 01:22:34;;;;;;;21.07;17.55;;;;;;;13.65;86.70;100103.16;1687602;85;26169;-59
2023/05/17 01:25:09;;;;;;;20.35;16.37;;;;;;;13.60;86.81;100104.72;1687726;85;25687;-58
2023/05/17 01:27:39;;;;;;;19.67;16.32;;;;;;;13.58;86.76;100113.20;1687796;85;27952;-58
2023/05/17 01:30:09;;;;;;;18.77;16.10;;;;;;;13.56;86.99;100109.24;1687609;85;25664;-59
2023/05/17 01:32:39;;;;;;;19.73;17.07;;;;;;;13.54;87.28;100109.58;1687680;85;25617;-59
2023/05/17 01:35:07;;;;;;;20.65;16.42;;;;;;;13.50;87.34;100103.77;1687654;85;26234;-58
2023/05/17 01:37:34;;;;;;;20.70;17.62;;;;;;;13.48;87.44;100110.11;1687747;85;25598;-58
2023/05/17 01:40:00;;;;;;;21.97;17.77;;;;;;;13.45;87.42;100111.02;1687656;85;27388;-58
2023/05/17 01:42:31;;;;;;;22.60;18.65;;;;;;;13.44;87.49;100117.56;1687648;85;25758;-58
2023/05/17 01:45:15;;;;;;;20.70;18.17;;;;;;;13.42;87.35;100117.11;1687329;85;25601;-55
2023/05/17 01:48:20;;;;;;;21.52;19.23;;;;;;;13.41;87.38;100118.79;1687534;83;25482;-53
2023/05/17 01:53:35;;;;;;;22.25;19.50;;;;;;;13.31;87.78;100098.22;1657926;86;27342;-55
2023/05/17 01:56:05;;;;;;;24.45;20.82;;;;;;;13.27;87.95;100097.30;1657930;86;25701;-56
2023/05/17 01:58:37;;;;;;;25.40;21.42;;;;;;;13.25;87.97;100099.56;1666342;84;25479;-54
2023/05/17 02:01:05;;;;;;;26.65;22.05;;;;;;;13.23;88.16;100102.61;1700581;84;25479;-53
2023/05/17 02:03:32;;;;;;;26.75;22.35;;;;;;;13.22;87.97;100106.44;1701656;84;25468;-53
2023/05/17 02:05:58;;;;;;;26.73;22.58;;;;;;;13.23;88.46;100107.25;1701566;84;27389;-54
2023/05/17 02:08:24;;;;;;;29.70;23.20;;;;;;;13.22;88.44;100108.36;1696000;84;33247;-55
2023/05/17 02:10:51;;;;;;;29.10;24.30;;;;;;;13.22;88.48;100108.36;1696092;84;25595;-56
2023/05/17 02:13:17;;;;;;;30.32;24.05;;;;;;;13.21;88.93;100114.38;1696024;84;25419;-56
2023/05/17 02:15:43;;;;;;;27.75;24.70;;;;;;;13.20;88.95;100122.27;1696179;84;25507;-57
2023/05/17 02:18:10;;;;;;;30.45;24.37;;;;;;;13.20;89.21;100119.55;1696109;84;26494;-57
2023/05/17 02:20:37;;;;;;;29.50;24.90;;;;;;;13.19;89.22;100115.81;1635904;86;25443;-53
2023/05/17 02:23:03;;;;;;;28.83;23.98;;;;;;;13.19;89.04;100120.67;1666556;86;25525;-53
2023/05/17 02:25:29;;;;;;;31.68;24.80;;;;;;;13.19;89.28;100119.31;1695998;84;25397;-54
2023/05/17 02:27:55;;;;;;;33.67;24.85;;;;;;;13.18;89.42;100112.31;1696092;84;25407;-53
2023/05/17 02:30:22;;;;;;;30.50;25.23;;;;;;;13.20;89.25;100110.63;1696034;84;27394;-53
2023/05/17 02:32:48;;;;;;;31.27;25.30;;;;;;;13.19;89.70;100109.02;1695944;84;25769;-53
2023/05/17 02:35:14;;;;;;;32.08;25.80;;;;;;;13.18;89.77;100107.45;1696016;84;25574;-54
2023/05/17 02:37:40;;;;;;;31.60;25.92;;;;;;;13.18;90.00;100111.52;1696036;84;25994;-52
2023/05/17 02:40:09;;;;;;;36.33;26.65;;;;;;;13.15;89.95;100106.75;1696047;84;25543;-52
2023/05/17 02:42:36;;;;;;;35.00;26.20;;;;;;;13.14;90.23;100124.16;1696059;84;27331;-51
2023/05/17 02:45:04;;;;;;;28.92;25.80;;;;;;;13.12;90.09;100120.98;1695952;84;25640;-51
2023/05/17 02:47:31;;;;;;;29.07;24.87;;;;;;;13.11;90.21;100112.05;1696088;84;25562;-51
2023/05/17 02:49:57;;;;;;;30.17;24.98;;;;;;;13.13;90.24;100110.33;1695928;84;25427;-52
2023/05/17 02:52:24;;;;;;;31.52;25.88;;;;;;;13.13;90.19;100103.55;1696104;84;25521;-52
2023/05/17 02:54:50;;;;;;;33.38;25.50;;;;;;;13.10;90.40;100108.30;1696042;84;27347;-51
2023/05/17 02:57:16;;;;;;;32.78;25.90;;;;;;;13.11;90.76;100120.73;1695967;84;25467;-51
2023/05/17 02:59:43;;;;;;;28.83;25.00;;;;;;;13.08;90.95;100120.28;1696069;84;25530;-51
2023/05/17 03:02:09;;;;;;;28.77;24.85;;;;;;;13.08;91.07;100122.20;1695965;84;25549;-51
2023/05/17 03:04:35;;;;;;;32.85;25.65;;;;;;;13.07;91.24;100125.46;1696024;84;25409;-52
2023/05/17 03:07:02;;;;;;;30.12;25.75;;;;;;;13.07;90.95;100128.75;1696043;84;27400;-55
2023/05/17 03:09:30;;;;;;;28.35;25.25;;;;;;;13.07;91.22;100127.39;1696018;84;25427;-56
2023/05/17 03:11:57;;;;;;;33.02;24.67;;;;;;;13.06;91.29;100119.03;1696212;84;25510;-56
2023/05/17 03:14:23;;;;;;;28.10;23.92;;;;;;;13.05;91.58;100122.28;1696041;84;25686;-55
2023/05/17 03:16:49;;;;;;;28.45;23.98;;;;;;;13.05;91.44;100120.93;1696111;84;25585;-56
2023/05/17 03:19:15;;;;;;;27.45;24.18;;;;;;;13.05;91.34;100129.08;1696148;84;29462;-53
2023/05/17 03:21:42;;;;;;;30.48;24.55;;;;;;;13.06;91.57;100143.47;1696092;84;25614;-52
2023/05/17 03:24:08;;;;;;;29.57;24.30;;;;;;;13.05;91.49;100154.08;1696141;84;25378;-52
2023/05/17 03:26:34;;;;;;;28.90;23.12;;;;;;;13.05;91.75;100160.88;1696114;84;25464;-55
2023/05/17 03:29:01;;;;;;;31.37;23.40;;;;;;;13.03;91.69;100157.12;1696194;84;25434;-55
2023/05/17 03:31:28;;;;;;;31.70;24.12;;;;;;;13.03;92.05;100151.69;1696141;84;27476;-56
2023/05/17 03:33:54;;;;;;;27.98;23.18;;;;;;;13.04;92.30;100153.30;1696111;84;27155;-53
2023/05/17 03:36:22;;;;;;;26.77;22.98;;;;;;;13.04;92.77;100154.66;1696190;84;25601;-56
2023/05/17 03:38:48;;;;;;;28.90;23.62;;;;;;;13.10;93.34;100147.10;1696188;84;27413;-51
2023/05/17 03:41:15;;;;;;;29.05;23.55;;;;;;;13.15;93.58;100147.48;1696305;84;25462;-53
2023/05/17 03:43:41;;;;;;;29.52;23.38;;;;;;;13.20;93.55;100141.85;1696146;83;27418;-53
2023/05/17 03:46:07;;;;;;;26.15;22.48;;;;;;;13.18;93.02;100142.18;1666584;86;25661;-53
2023/05/17 03:48:33;;;;;;;23.47;20.90;;;;;;;13.16;92.78;100142.27;1696141;84;25443;-54
2023/05/17 03:51:00;;;;;;;23.47;20.75;;;;;;;13.15;92.75;100147.48;1696065;84;25833;-55
2023/05/17 03:53:27;;;;;;;24.00;21.07;;;;;;;13.17;93.20;100148.73;1696171;84;25610;-52
2023/05/17 03:55:53;;;;;;;24.43;20.92;;;;;;;13.17;93.06;100146.58;1696117;84;29642;-56
2023/05/17 03:58:19;;;;;;;23.90;19.92;;;;;;;13.19;93.17;100147.83;1696071;84;25619;-51
2023/05/17 04:00:45;;;;;;;22.00;19.40;;;;;;;13.19;93.22;100154.62;1696171;84;25629;-52
2023/05/17 04:03:11;;;;;;;22.10;19.65;;;;;;;13.17;93.05;100152.80;1696196;84;25608;-54
2023/05/17 04:05:40;;;;;;;23.85;18.65;;;;;;;13.17;93.13;100153.38;1696119;84;25566;-53
2023/05/17 04:08:06;;;;;;;22.55;19.27;;;;;;;13.18;93.43;100147.61;1696144;84;27511;-53
2023/05/17 04:10:33;;;;;;;21.45;18.73;;;;;;;13.20;93.35;100148.08;1695993;84;25852;-52
2023/05/17 04:12:59;;;;;;;21.55;18.62;;;;;;;13.19;93.32;100139.68;1666625;86;25598;-54
2023/05/17 04:15:25;;;;;;;21.93;18.07;;;;;;;13.18;93.36;100144.11;1696025;84;25725;-52
2023/05/17 04:17:52;;;;;;;22.22;18.05;;;;;;;13.17;93.40;100139.22;1666613;86;25677;-52
2023/05/17 04:20:18;;;;;;;21.62;19.17;;;;;;;13.17;93.41;100139.22;1696082;84;25861;-53
2023/05/17 04:22:44;;;;;;;20.25;18.15;;;;;;;13.17;93.61;100148.73;1696057;84;25413;-53
2023/05/17 04:25:10;;;;;;;23.20;19.05;;;;;;;13.18;93.74;100144.90;1696089;84;25397;-53
2023/05/17 04:27:37;;;;;;;21.95;18.82;;;;;;;13.19;93.79;100148.41;1696100;84;25660;-56
2023/05/17 04:30:05;;;;;;;21.30;18.00;;;;;;;13.19;93.75;100145.11;1696078;84;25539;-53
2023/05/17 04:32:32;;;;;;;20.97;18.67;;;;;;;13.20;93.83;100147.29;1696139;84;27930;-56
2023/05/17 04:35:00;;;;;;;24.32;19.40;;;;;;;13.20;93.67;100155.44;1695991;84;25568;-53
2023/05/17 04:37:26;;;;;;;22.62;19.35;;;;;;;13.18;93.46;100158.48;1696127;84;25521;-54
2023/05/17 04:39:53;;;;;;;23.95;20.08;;;;;;;13.15;93.41;100155.63;1701591;84;25426;-56
2023/05/17 04:42:19;;;;;;;22.00;19.67;;;;;;;13.15;93.42;100161.06;1701623;84;25484;-56
2023/05/17 04:44:45;;;;;;;24.47;21.65;;;;;;;13.14;93.41;100164.89;1696127;84;27408;-53
2023/05/17 04:47:12;;;;;;;23.70;21.20;;;;;;;13.11;93.42;100166.36;1696099;84;25599;-52
2023/05/17 04:49:38;;;;;;;23.05;20.57;;;;;;;13.11;93.44;100173.69;1696162;84;25470;-56
2023/05/17 04:52:05;;;;;;;26.15;22.48;;;;;;;13.09;93.55;100167.22;1687257;83;25627;-58
2023/05/17 04:54:32;;;;;;;28.07;22.65;;;;;;;13.07;93.77;100177.05;1683943;85;25584;-58
2023/05/17 04:56:58;;;;;;;26.27;22.48;;;;;;;13.05;93.87;100179.30;1683905;85;27343;-59
2023/05/17 04:59:25;;;;;;;24.52;20.97;;;;;;;13.06;94.08;100186.34;1683781;85;25545;-60
2023/05/17 05:01:51;;;;;;;23.50;21.00;;;;;;;13.04;93.99;100173.66;1683939;85;25671;-58
2023/05/17 05:04:17;;;;;;;25.60;21.82;;;;;;;13.05;94.03;100173.88;1683959;85;25557;-57
2023/05/17 05:06:43;;;;;;;27.62;22.60;;;;;;;13.06;94.09;100174.69;1683934;85;25634;-57
2023/05/17 05:09:09;;;;;;;28.38;23.30;;;;;;;13.05;94.16;100173.88;1683837;85;29605;-58
2023/05/17 05:11:36;;;;;;;29.23;24.50;;;;;;;13.04;94.19;100168.23;1683870;85;25657;-57
2023/05/17 05:14:02;;;;;;;27.37;24.47;;;;;;;13.04;94.38;100173.66;1683873;85;25664;-57
2023/05/17 05:16:28;;;;;;;27.80;23.30;;;;;;;13.03;94.33;100174.77;1654811;86;25626;-58
2023/05/17 05:18:54;;;;;;;26.70;22.30;;;;;;;13.02;94.46;100178.59;1683929;85;25637;-58
2023/05/17 05:21:20;;;;;;;28.40;22.42;;;;;;;13.01;94.50;100178.38;1683918;85;27332;-58
2023/05/17 05:23:46;;;;;;;26.70;22.35;;;;;;;13.01;94.67;100175.66;1683816;85;33186;-59
2023/05/17 05:26:12;;;;;;;27.13;23.15;;;;;;;13.01;94.69;100179.73;1683907;85;25410;-56
2023/05/17 05:28:39;;;;;;;26.65;22.35;;;;;;;13.01;94.64;100175.66;1683890;85;25695;-57
2023/05/17 05:31:05;;;;;;;25.12;21.30;;;;;;;13.01;94.67;100170.23;1683928;85;25554;-58
2023/05/17 05:33:31;;;;;;;26.37;21.65;;;;;;;13.02;94.71;100181.88;1683888;85;27437;-57
2023/05/17 05:35:57;;;;;;;24.90;22.20;;;;;;;13.01;94.88;100177.59;1683821;85;25808;-58
2023/05/17 05:38:24;;;;;;;23.55;20.05;;;;;;;13.02;94.90;100192.74;1683874;85;25616;-60
2023/05/17 05:40:50;;;;;;;24.65;20.37;;;;;;;13.03;94.95;100194.34;1683838;85;25599;-59
2023/05/17 05:43:16;;;;;;;22.25;19.37;;;;;;;13.02;94.83;100194.89;1683938;85;25393;-59
2023/05/17 05:45:46;;;;;;;22.65;18.98;;;;;;;13.01;94.88;100196.60;1683856;85;27345;-60
2023/05/17 05:48:12;;;;;;;20.15;18.05;;;;;;;13.02;94.85;100193.53;1683618;85;25510;-59
2023/05/17 05:50:42;;;;;;;19.95;17.85;;;;;;;13.02;94.75;100182.67;1683843;85;25611;-60
2023/05/17 05:53:11;;;;;;;21.25;17.05;;;;;;;13.02;94.97;100182.67;1654860;86;25692;-57
2023/05/17 05:55:41;;;;;;;20.00;17.42;;;;;;;13.02;95.03;100185.39;1654506;86;25559;-59
2023/05/17 05:58:08;;;;;;;20.12;17.32;;;;;;;13.02;94.93;100186.75;1683756;85;27344;-58
2023/05/17 06:00:36;;;;;;;21.50;17.65;;;;;;;13.06;95.04;100192.34;1683593;85;25566;-59
2023/05/17 06:03:03;;;;;;;16.73;15.00;;;;;;;13.06;95.16;100184.98;1683903;85;25470;-59
2023/05/17 06:05:29;;;;;;;16.05;14.35;;;;;;;13.06;95.07;100176.84;1683824;85;26159;-57
2023/05/17 06:07:56;;;;;;;16.37;14.58;;;;;;;13.05;95.17;100176.59;1683914;85;25419;-58
2023/05/17 06:10:23;;;;;;;17.87;14.80;;;;;;;13.07;95.59;100163.47;1683837;85;29462;-58
2023/05/17 06:12:49;;;;;;;16.10;14.03;;;;;;;13.10;95.30;100173.47;1683798;85;25576;-57
2023/05/17 06:15:16;;;;;;;15.18;13.58;;;;;;;13.09;95.24;100172.66;1683826;85;25556;-59
2023/05/17 06:17:42;;;;;;;15.48;13.85;;;;;;;13.10;95.36;100170.75;1654708;86;25617;-58
2023/05/17 06:20:10;;;;;;;19.23;15.03;;;;;;;13.14;95.67;100172.46;1654790;86;25688;-58
2023/05/17 06:22:36;;;;;;;15.43;13.83;;;;;;;13.15;95.52;100169.99;1683850;85;27376;-59
2023/05/17 06:25:02;;;;;;;15.68;14.07;;;;;;;13.18;95.46;100172.63;1683804;85;25637;-58
2023/05/17 06:27:32;;;;;;;16.48;13.28;;;;;;;13.20;95.63;100174.45;1683843;85;25396;-58
2023/05/17 06:29:59;;;;;;;16.57;13.78;;;;;;;13.23;95.67;100189.52;1683844;85;25706;-58
2023/05/17 06:32:26;;;;;;;15.32;13.83;;;;;;;13.23;95.65;100180.02;1683899;85;25384;-59
2023/05/17 06:34:52;;;;;;;14.78;12.93;;;;;;;13.21;95.05;100180.09;1683908;85;27396;-58
2023/05/17 06:37:18;;;;;;;15.18;13.28;;;;;;;13.21;95.17;100186.34;1683766;85;25384;-59
2023/05/17 06:39:44;;;;;;;18.50;14.65;;;;;;;13.20;95.08;100188.02;1683871;85;25633;-57
2023/05/17 06:42:10;;;;;;;16.40;13.62;;;;;;;13.20;95.09;100191.53;1683837;85;25639;-59
2023/05/17 06:44:37;;;;;;;15.83;14.07;;;;;;;13.20;94.91;100204.31;1650811;86;25646;-59
2023/05/17 06:47:03;;;;;;;14.78;13.28;;;;;;;13.18;95.03;100199.78;1718748;83;27314;-58
2023/05/17 06:49:30;;;;;;;15.10;13.60;;;;;;;13.19;95.17;100199.43;1718610;83;25209;-59
2023/05/17 06:52:01;;;;;;;16.55;13.15;;;;;;;13.20;95.24;100208.39;1713198;83;25565;-58
2023/05/17 06:54:25;;;;;;;15.40;13.38;;;;;;;13.20;95.27;100205.67;1703822;83;25672;-59
2023/05/17 06:56:51;;;;;;;14.78;13.28;;;;;;;13.19;95.33;100208.94;1704404;84;25449;-58
2023/05/17 06:59:17;;;;;;;14.75;13.18;;;;;;;13.19;94.99;100214.36;1704328;84;27328;-58
2023/05/17 07:01:43;;;;;;;12.07;10.75;;;;;;;13.18;95.08;100222.87;1704221;84;25722;-57
2023/05/17 07:04:10;;;;;;;13.40;11.73;;;;;;;13.17;95.04;100223.41;1704365;84;29575;-59
2023/05/17 07:06:36;;;;;;;11.65;10.40;;;;;;;13.16;95.07;100235.95;1704304;83;25632;-58
2023/05/17 07:09:02;;;;;;;11.15;10.05;;;;;;;13.14;94.96;100233.56;1704355;84;25324;-58
2023/05/17 07:11:28;;;;;;;11.08;9.98;;;;;;;13.12;94.93;100237.17;1704287;84;27474;-58
2023/05/17 07:13:55;;;;;;;11.57;10.10;;;;;;;13.13;94.91;100247.47;1704340;84;25632;-57
2023/05/17 07:16:21;;;;;;;10.35;9.18;;;;;;;13.10;94.92;100250.29;1704347;84;25402;-58
2023/05/17 07:18:47;;;;;;;10.28;9.33;;;;;;;13.08;94.87;100251.97;1704336;83;26393;-58
2023/05/17 07:21:13;;;;;;;10.75;9.68;;;;;;;13.08;95.10;100257.97;1704380;83;25417;-59
2023/05/17 07:23:39;;;;;;;10.10;9.10;;;;;;;13.07;95.13;100251.72;1704336;83;27342;-57
2023/05/17 07:26:06;;;;;;;9.93;9.00;;;;;;;13.11;95.55;100259.22;1704302;84;25692;-57
2023/05/17 07:28:32;;;;;;;9.23;8.33;;;;;;;13.13;95.64;100256.43;1704392;83;25645;-58
2023/05/17 07:30:59;;;;;;;9.65;8.00;;;;;;;13.16;95.80;100258.50;1704321;84;25994;-58
2023/05/17 07:33:25;;;;;;;9.63;8.63;;;;;;;13.19;95.90;100253.75;1704393;83;25491;-58
2023/05/17 07:35:51;;;;;;;10.05;8.85;;;;;;;13.25;96.30;100254.37;1704320;84;27420;-58
2023/05/17 07:38:17;;;;;;;8.13;7.33;;;;;;;13.31;96.38;100256.33;1704240;84;25514;-59
2023/05/17 07:40:44;;;;;;;8.98;8.10;;;;;;;13.33;96.24;100254.92;1704363;84;25455;-58
2023/05/17 07:43:10;;;;;;;10.60;7.50;;;;;;;13.39;96.31;100259.59;1704420;84;25561;-59
2023/05/17 07:45:36;;;;;;;8.55;7.67;;;;;;;13.44;96.47;100245.83;1704378;84;25598;-60
2023/05/17 07:48:03;;;;;;;8.48;7.67;;;;;;;13.48;96.34;100244.03;1704337;84;27348;-59
2023/05/17 07:50:29;;;;;;;9.18;7.33;;;;;;;13.53;96.72;100238.41;1704291;84;25452;-59
2023/05/17 07:52:57;;;;;;;7.95;7.15;;;;;;;13.60;96.68;100239.23;1714835;83;25632;-59
2023/05/17 07:55:23;;;;;;;8.25;7.45;;;;;;;13.65;96.50;100236.33;1720870;83;25707;-58
2023/05/17 07:57:49;;;;;;;7.60;6.92;;;;;;;13.68;96.40;100246.54;1720959;83;25618;-59
2023/05/17 08:00:18;;;;;;;8.25;7.33;;;;;;;13.72;96.20;100241.23;1721018;83;27353;-60
2023/05/17 08:02:45;;;;;;;7.47;6.78;;;;;;;13.75;96.19;100251.45;1720838;83;25658;-58
2023/05/17 08:05:12;;;;;;;7.92;7.22;;;;;;;13.77;95.82;100247.83;1720977;83;25554;-58
2023/05/17 08:07:38;;;;;;;14.95;7.70;;;;;;;13.76;95.00;100257.92;1721043;83;25688;-59
2023/05/17 08:10:05;;;;;;;8.10;7.30;;;;;;;13.76;94.91;100266.08;1721115;83;25413;-58
2023/05/17 08:12:32;;;;;;;8.40;7.60;;;;;;;13.76;94.85;100263.93;1721073;83;27522;-59
2023/05/17 08:14:58;;;;;;;8.38;7.25;;;;;;;13.74;94.61;100258.00;1720966;83;25634;-59
2023/05/17 08:17:25;;;;;;;7.95;7.05;;;;;;;13.71;94.42;100264.13;1721159;83;25481;-59
2023/05/17 08:19:51;;;;;;;8.63;7.83;;;;;;;13.71;94.76;100268.20;1721139;83;26294;-60
2023/05/17 08:22:18;;;;;;;10.10;8.18;;;;;;;13.74;94.96;100262.08;1721243;83;25616;-59
2023/05/17 08:24:44;;;;;;;8.48;7.60;;;;;;;13.76;95.21;100253.84;1721137;83;28240;-58
2023/05/17 08:27:11;;;;;;;10.95;8.15;;;;;;;13.80;95.34;100259.41;1721022;83;25462;-59
2023/05/17 08:29:37;;;;;;;8.75;7.72;;;;;;;13.83;95.58;100257.39;1721021;83;25615;-59
2023/05/17 08:32:05;;;;;;;9.58;8.58;;;;;;;13.85;94.98;100257.84;1720991;83;25640;-57
2023/05/17 08:34:32;;;;;;;9.13;8.23;;;;;;;13.83;94.78;100259.54;1721055;83;25450;-59
2023/05/17 08:36:58;;;;;;;8.45;7.55;;;;;;;13.83;94.64;100270.41;1721069;83;27935;-59
2023/05/17 08:39:24;;;;;;;10.28;8.23;;;;;;;13.79;94.38;100277.66;1721053;83;25626;-57
2023/05/17 08:41:52;;;;;;;9.00;8.10;;;;;;;13.75;94.09;100273.98;1721072;83;25620;-59
2023/05/17 08:44:20;;;;;;;11.93;8.48;;;;;;;13.75;94.08;100281.35;1721206;83;25455;-58
2023/05/17 08:46:52;;;;;;;8.60;7.80;;;;;;;13.74;94.21;100288.72;1721033;83;25648;-58
2023/05/17 08:49:22;;;;;;;10.18;8.90;;;;;;;13.73;94.20;100287.69;1690731;83;27299;-57
2023/05/17 08:51:55;;;;;;;10.05;8.98;;;;;;;13.68;93.97;100286.52;1720575;83;25560;-58
2023/05/17 08:54:22;;;;;;;8.90;8.00;;;;;;;13.67;93.78;100295.79;1704434;84;25418;-59
2023/05/17 08:56:57;;;;;;;7.95;7.28;;;;;;;13.64;93.65;100292.61;1684883;84;27588;-58
2023/05/17 08:59:32;;;;;;;8.40;7.60;;;;;;;13.62;93.58;100298.13;1704121;83;25222;-58
2023/05/17 09:01:56;;;;;;;8.73;7.45;;;;;;;13.58;93.56;100291.77;1703832;83;27370;-58
2023/05/17 09:04:24;;;;;;;8.20;7.40;;;;;;;13.59;94.13;100294.73;1704445;83;25252;-59
2023/05/17 09:06:51;;;;;;;13.03;7.83;;;;;;;13.58;94.42;100292.55;1704543;84;25638;-59
2023/05/17 09:09:19;;;;;;;8.53;7.72;;;;;;;13.58;94.35;100300.71;1704421;83;25627;-61
2023/05/17 09:11:46;;;;;;;8.58;7.78;;;;;;;13.58;94.30;100298.56;1704357;84;25618;-58
2023/05/17 09:14:16;;;;;;;10.13;7.20;;;;;;;13.56;94.26;100307.05;1704481;84;27309;-59
2023/05/17 09:16:44;;;;;;;7.92;7.15;;;;;;;13.56;94.47;100300.25;1704503;84;25568;-58
2023/05/17 09:19:16;;;;;;;8.25;7.45;;;;;;;13.55;94.39;100307.37;1704386;84;25559;-58
2023/05/17 09:21:47;;;;;;;8.38;7.22;;;;;;;13.51;94.17;100288.21;1704404;84;26218;-59
2023/05/17 09:24:14;;;;;;;7.47;6.78;;;;;;;13.53;94.15;100287.88;1704383;84;25555;-57
2023/05/17 09:26:44;;;;;;;10.13;7.97;;;;;;;13.51;94.28;100284.70;1704309;84;27346;-58
2023/05/17 09:29:16;;;;;;;7.35;6.45;;;;;;;13.50;94.39;100297.50;1704358;84;25225;-59
2023/05/17 09:31:45;;;;;;;9.38;7.30;;;;;;;13.50;94.18;100298.86;1704425;84;25591;-58
2023/05/17 09:34:17;;;;;;;8.03;7.23;;;;;;;13.51;94.38;100301.02;1704648;83;25637;-59
2023/05/17 09:36:45;;;;;;;7.50;6.75;;;;;;;13.51;94.58;100304.52;1704281;84;25604;-59
2023/05/17 09:39:14;;;;;;;7.20;6.60;;;;;;;13.51;94.53;100304.52;1704271;83;28035;-58
2023/05/17 09:41:46;;;;;;;7.03;6.33;;;;;;;13.49;94.23;100313.56;1704432;84;25564;-59
2023/05/17 09:44:15;;;;;;;6.92;6.15;;;;;;;13.47;94.09;100309.56;1704404;84;25465;-59
2023/05/17 09:46:46;;;;;;;;;;;;;;;13.43;93.95;100309.43;1706864;84;26425;-60
2023/05/17 09:49:15;;;;;;;7.97;6.00;;;;;;;13.39;93.91;100306.57;1704463;84;25424;-60
2023/05/17 09:51:49;;;;;;;6.50;5.60;;;;;;;13.35;93.93;100317.05;1704522;84;27401;-58
2023/05/17 09:54:16;;;;;;;6.60;5.78;;;;;;;13.31;93.71;100318.24;1704313;84;25682;-59
2023/05/17 09:56:48;;;;;;;10.98;8.40;;;;;;;13.28;93.74;100318.92;1704355;84;25475;-62
2023/05/17 09:59:16;;;;;;;9.05;7.45;;;;;;;13.26;93.44;100328.75;1702136;83;25644;-60
2023/05/17 10:01:46;;;;;;;6.90;6.25;;;;;;;13.28;94.31;100325.70;1704355;84;25569;-58
2023/05/17 10:04:19;;;;;;;6.83;6.10;;;;;;;13.30;94.15;100331.61;1704404;84;27735;-59
2023/05/17 10:06:45;;;;;;;7.67;6.75;;;;;;;13.31;93.84;100324.25;1704180;83;25348;-60
2023/05/17 10:09:14;;;;;;;7.45;6.75;;;;;;;13.32;93.94;100324.52;1704441;84;25552;-59
2023/05/17 10:11:46;;;;;;;8.85;7.05;;;;;;;13.27;93.55;100337.69;1704477;84;25828;-63
2023/05/17 10:14:27;;;;;;;8.25;7.05;;;;;;;13.26;93.51;100342.33;1704463;84;25454;-62
2023/05/17 10:16:57;;;;;;;8.48;7.60;;;;;;;13.23;93.10;100348.98;1703701;84;27354;-59
2023/05/17 10:19:27;;;;;;;9.15;8.18;;;;;;;13.18;93.07;100351.87;1704386;83;25392;-58
2023/05/17 10:21:56;;;;;;;;;;;;;;;13.15;92.97;100342.44;1706938;84;25428;-60
2023/05/17 10:24:26;;;;;;;8.98;8.08;;;;;;;13.08;92.72;100351.08;1704425;84;25748;-61
2023/05/17 10:26:53;;;;;;;;;;;;;;;13.06;93.06;100345.76;1706818;84;25621;-59
2023/05/17 10:29:23;;;;;;;11.63;9.03;;;;;;;13.03;92.95;100348.55;1704361;83;27354;-60
2023/05/17 10:31:51;;;;;;;12.47;9.28;;;;;;;13.01;93.27;100346.72;1704361;84;27177;-59
2023/05/17 10:34:19;;;;;;;13.70;9.43;;;;;;;13.00;93.15;100347.04;1704380;84;25423;-60
2023/05/17 10:36:49;;;;;;;10.98;9.70;;;;;;;12.97;92.94;100343.61;1704383;84;25659;-60
2023/05/17 10:39:17;;;;;;;11.15;9.58;;;;;;;12.93;93.03;100342.67;1704124;84;25435;-60
2023/05/17 10:41:50;;;;;;;15.25;10.80;;;;;;;12.92;93.46;100350.00;1704233;84;27316;-61
2023/05/17 10:44:20;;;;;;;13.83;10.68;;;;;;;12.94;93.55;100350.50;1704255;84;25634;-61
2023/05/17 10:46:59;;;;;;;12.53;11.22;;;;;;;12.94;93.54;100359.19;1704314;84;25643;-61
2023/05/17 10:49:30;;;;;;;13.30;11.17;;;;;;;12.88;93.11;100362.64;1704607;84;25653;-57
2023/05/17 10:52:16;;;;;;;18.32;12.73;;;;;;;12.86;92.88;100370.31;1703864;83;25466;-58
2023/05/17 10:54:47;;;;;;;14.78;10.70;;;;;;;12.81;93.13;100367.20;1704221;83;27344;-55
2023/05/17 10:57:35;;;;;;;12.63;10.90;;;;;;;12.81;92.76;100367.20;1704271;84;25468;-54
2023/05/17 11:00:11;;;;;;;17.13;11.37;;;;;;;12.79;92.96;100369.44;1704671;84;25550;-58
2023/05/17 11:02:47;;;;;;;12.78;11.12;;;;;;;12.79;93.04;100370.02;1704144;84;25696;-59
2023/05/17 11:05:26;;;;;;;15.95;11.20;;;;;;;12.78;93.38;100369.77;1702368;83;25490;-58
2023/05/17 11:08:16;;;;;;;18.75;11.43;;;;;;;12.76;93.15;100373.36;1704318;84;27294;-57
2023/05/17 11:11:04;;;;;;;16.25;11.35;;;;;;;12.76;93.09;100375.50;1703812;84;25458;-60
2023/05/17 11:13:32;;;;;;;16.40;11.57;;;;;;;12.78;93.51;100376.55;1704219;82;25660;-58
2023/05/17 11:16:10;;;;;;;17.50;11.43;;;;;;;12.79;93.70;100378.94;1704235;84;25737;-59
2023/05/17 11:18:53;;;;;;;13.03;10.60;;;;;;;12.83;94.03;100376.37;1704343;84;25584;-59
2023/05/17 11:21:25;;;;;;;17.23;11.45;;;;;;;12.84;93.71;100379.34;1704247;83;27346;-58